createdAt,value
2018-12-01T00:02:02.323Z,7.01
2018-12-01T00:04:31.923Z,6.93
2018-12-01T00:07:05.735Z,7.00
2018-12-01T00:09:33.789Z,7.01
2018-12-01T00:12:01.784Z,6.92
2018-12-01T00:14:29.846Z,7.02
2018-12-01T00:16:57.860Z,6.93
2018-12-01T00:19:25.946Z,7.01
2018-12-01T00:21:53.961Z,6.94
2018-12-01T00:24:21.990Z,6.87
2018-12-01T00:26:51.291Z,6.89
2018-12-01T00:29:19.303Z,6.92
2018-12-01T00:31:47.382Z,6.96
2018-12-01T00:34:15.428Z,6.90
2018-12-01T00:36:43.484Z,6.88
2018-12-01T00:39:12.587Z,6.85
2018-12-01T00:41:40.597Z,6.75
2018-12-01T00:44:08.651Z,6.67
2018-12-01T00:46:36.707Z,6.76
2018-12-01T00:49:04.777Z,6.64
2018-12-01T00:51:32.877Z,6.60
2018-12-01T00:54:00.891Z,6.54
2018-12-01T00:56:28.994Z,6.47
2018-12-01T00:58:56.989Z,6.41
2018-12-01T01:01:25.062Z,6.36
2018-12-01T01:03:53.072Z,6.27
2018-12-01T01:06:21.174Z,6.37
2018-12-01T01:08:49.162Z,6.35
2018-12-01T01:11:17.211Z,6.33
2018-12-01T01:13:45.250Z,6.37
2018-12-01T01:16:13.273Z,6.39
2018-12-01T01:18:41.265Z,6.44
2018-12-01T01:21:10.215Z,6.37
2018-12-01T01:23:38.239Z,6.35
2018-12-01T01:26:06.321Z,6.43
2018-12-01T01:28:34.422Z,6.44
2018-12-01T01:31:02.519Z,6.42
2018-12-01T01:33:30.650Z,6.47
2018-12-01T01:35:58.683Z,6.47
2018-12-01T01:38:26.719Z,6.38
2018-12-01T01:41:02.358Z,6.41
2018-12-01T01:43:30.384Z,6.34
2018-12-01T01:45:58.398Z,6.44
2018-12-01T01:48:26.491Z,6.43
2018-12-01T01:50:54.558Z,6.44
2018-12-01T01:53:22.636Z,6.50
2018-12-01T01:55:50.937Z,6.55
2018-12-01T01:58:19.038Z,6.40
2018-12-01T02:00:47.051Z,6.46
2018-12-01T02:03:16.079Z,6.52
2018-12-01T02:05:44.067Z,6.51
2018-12-01T02:08:12.155Z,6.52
2018-12-01T02:10:40.121Z,6.54
2018-12-01T02:13:08.236Z,6.45
2018-12-01T02:15:39.378Z,6.37
2018-12-01T02:18:07.415Z,6.45
2018-12-01T02:20:35.470Z,6.26
2018-12-01T02:23:03.500Z,6.28
2018-12-01T02:25:31.556Z,6.41
2018-12-01T02:27:59.992Z,6.46
2018-12-01T02:30:28.040Z,6.49
2018-12-01T02:32:56.062Z,6.42
2018-12-01T02:35:24.915Z,6.45
2018-12-01T02:37:52.896Z,6.43
2018-12-01T02:40:20.971Z,6.42
2018-12-01T02:42:49.051Z,6.40
2018-12-01T02:45:23.409Z,6.47
2018-12-01T02:47:51.415Z,6.47
2018-12-01T02:50:24.158Z,6.45
2018-12-01T02:52:52.658Z,6.41
2018-12-01T02:55:20.680Z,6.43
2018-12-01T02:57:49.042Z,6.45
2018-12-01T03:00:17.072Z,6.49
2018-12-01T03:02:45.087Z,6.44
2018-12-01T03:05:13.238Z,6.43
2018-12-01T03:07:41.314Z,6.35
2018-12-01T03:10:10.904Z,6.43
2018-12-01T03:12:38.991Z,6.34
2018-12-01T03:15:07.991Z,6.42
2018-12-01T03:17:39.611Z,6.48
2018-12-01T03:20:12.392Z,6.51
2018-12-01T03:22:40.432Z,6.46
2018-12-01T03:25:16.273Z,6.49
2018-12-01T03:27:48.440Z,6.52
2018-12-01T03:30:18.541Z,6.51
2018-12-01T03:32:46.783Z,6.51
2018-12-01T03:35:14.877Z,6.42
2018-12-01T03:37:43.325Z,6.42
2018-12-01T03:40:11.812Z,6.37
2018-12-01T03:42:39.903Z,6.42
2018-12-01T03:45:08.872Z,6.36
2018-12-01T03:47:36.901Z,6.36
2018-12-01T03:50:05.379Z,6.22
2018-12-01T03:52:33.449Z,6.22
2018-12-01T03:55:01.502Z,6.30
2018-12-01T03:57:29.557Z,6.38
2018-12-01T03:59:57.622Z,6.36
2018-12-01T04:02:25.666Z,6.29
2018-12-01T04:04:53.699Z,6.24
2018-12-01T04:07:21.691Z,6.21
2018-12-01T04:09:51.087Z,6.27
2018-12-01T04:12:19.185Z,6.29
2018-12-01T04:14:47.168Z,6.27
2018-12-01T04:17:15.502Z,6.25
2018-12-01T04:19:43.529Z,6.36
2018-12-01T04:22:11.891Z,6.35
2018-12-01T04:24:39.926Z,6.33
2018-12-01T04:27:08.000Z,6.39
2018-12-01T04:29:36.125Z,6.33
2018-12-01T04:32:05.634Z,6.35
2018-12-01T04:34:33.644Z,6.30
2018-12-01T04:37:01.715Z,6.26
2018-12-01T04:39:29.753Z,6.27
2018-12-01T04:41:57.840Z,6.29
2018-12-01T04:44:25.848Z,6.41
2018-12-01T04:46:53.921Z,6.39
2018-12-01T04:49:21.950Z,6.42
2018-12-01T04:51:49.947Z,6.50
2018-12-01T04:54:17.994Z,6.61
2018-12-01T04:56:46.044Z,6.58
2018-12-01T04:59:14.104Z,6.63
2018-12-01T05:01:42.163Z,6.69
2018-12-01T05:04:14.096Z,6.72
2018-12-01T05:06:42.063Z,6.76
2018-12-01T05:09:10.127Z,6.82
2018-12-01T05:11:38.185Z,6.89
2018-12-01T05:14:06.195Z,6.90
2018-12-01T05:16:34.283Z,6.94
2018-12-01T05:19:02.312Z,6.80
2018-12-01T05:21:30.382Z,6.88
2018-12-01T05:23:58.372Z,6.94
2018-12-01T05:26:26.447Z,7.00
2018-12-01T05:28:54.473Z,7.02
2018-12-01T05:31:22.576Z,6.90
2018-12-01T05:33:50.602Z,6.98
2018-12-01T05:36:18.678Z,7.02
2018-12-01T05:38:46.710Z,7.07
2018-12-01T05:41:14.743Z,7.12
2018-12-01T05:43:42.780Z,7.11
2018-12-01T05:46:10.870Z,7.14
2018-12-01T05:48:38.945Z,7.19
2018-12-01T05:51:07.004Z,7.20
2018-12-01T05:53:34.998Z,7.24
2018-12-01T05:56:03.916Z,7.26
2018-12-01T05:58:31.971Z,7.29
2018-12-01T06:01:00.021Z,7.25
2018-12-01T06:03:28.049Z,7.21
2018-12-01T06:05:56.065Z,7.26
2018-12-01T06:08:24.125Z,7.26
2018-12-01T06:10:52.134Z,7.26
2018-12-01T06:13:20.155Z,7.24
2018-12-01T06:15:48.176Z,7.38
2018-12-01T06:18:16.296Z,7.34
2018-12-01T06:20:44.380Z,7.30
2018-12-01T06:23:12.536Z,7.26
2018-12-01T06:25:40.572Z,7.44
2018-12-01T06:28:10.020Z,7.49
2018-12-01T06:30:38.148Z,7.45
2018-12-01T06:33:06.216Z,7.44
2018-12-01T06:35:34.326Z,7.45
2018-12-01T06:38:02.426Z,7.40
2018-12-01T06:40:30.432Z,7.48
2018-12-01T06:42:58.522Z,7.48
2018-12-01T06:45:26.655Z,7.44
2018-12-01T06:47:54.672Z,7.47
2018-12-01T06:50:24.114Z,7.42
2018-12-01T06:52:52.756Z,7.45
2018-12-01T06:55:21.253Z,7.48
2018-12-01T06:57:49.300Z,7.58
2018-12-01T07:00:18.015Z,7.47
2018-12-01T07:02:49.140Z,7.55
2018-12-01T07:05:17.479Z,7.65
2018-12-01T07:07:45.520Z,7.60
2018-12-01T07:10:19.313Z,7.65
2018-12-01T07:13:11.649Z,7.65
2018-12-01T07:15:40.444Z,7.59
2018-12-01T07:18:14.177Z,7.57
2018-12-01T07:20:44.224Z,7.60
2018-12-01T07:26:00.697Z,7.56
2018-12-01T07:28:28.994Z,7.54
2018-12-01T07:30:58.718Z,7.51
2018-12-01T07:33:29.146Z,7.56
2018-12-01T07:36:08.081Z,7.46
2018-12-01T07:38:36.751Z,7.50
2018-12-01T07:41:05.452Z,7.60
2018-12-01T07:43:40.767Z,7.62
2018-12-01T07:46:10.491Z,7.61
2018-12-01T07:48:45.050Z,7.56
2018-12-01T07:51:14.730Z,7.53
2018-12-01T07:53:43.996Z,7.58
2018-12-01T07:56:12.094Z,7.51
2018-12-01T07:58:40.496Z,7.48
2018-12-01T08:01:08.559Z,7.57
2018-12-01T08:03:36.669Z,7.59
2018-12-01T08:06:06.471Z,7.63
2018-12-01T08:08:34.797Z,7.60
2018-12-01T08:11:03.256Z,7.41
2018-12-01T08:13:33.324Z,7.47
2018-12-01T08:16:01.732Z,7.41
2018-12-01T08:18:36.531Z,7.50
2018-12-01T08:21:08.609Z,7.54
2018-12-01T08:23:36.975Z,7.62
2018-12-01T08:26:05.868Z,7.54
2018-12-01T08:34:34.153Z,7.24
2018-12-01T08:37:06.185Z,7.19
2018-12-01T08:39:34.310Z,7.39
2018-12-01T08:42:02.317Z,7.37
2018-12-01T08:44:30.450Z,7.31
2018-12-01T08:46:58.504Z,7.31
2018-12-01T08:49:26.611Z,7.40
2018-12-01T08:51:55.757Z,7.34
2018-12-01T08:54:25.791Z,7.35
2018-12-01T08:56:53.788Z,7.51
2018-12-01T08:59:22.307Z,7.56
2018-12-01T09:01:50.369Z,7.78
2018-12-01T09:04:18.559Z,7.83
2018-12-01T09:06:53.856Z,7.88
2018-12-01T09:09:21.998Z,7.99
2018-12-01T09:11:51.563Z,7.90
2018-12-01T09:14:20.010Z,8.01
2018-12-01T09:16:48.053Z,7.94
2018-12-01T09:19:16.134Z,8.10
2018-12-01T09:21:44.279Z,8.27
2018-12-01T09:24:13.091Z,8.40
2018-12-01T09:26:41.423Z,8.51
2018-12-01T09:29:10.915Z,8.72
2018-12-01T09:31:39.008Z,8.64
2018-12-01T09:34:08.381Z,8.63
2018-12-01T09:36:36.518Z,8.50
2018-12-01T09:39:07.993Z,8.43
2018-12-01T09:41:40.801Z,8.58
2018-12-01T09:44:09.258Z,8.57
2018-12-01T09:46:37.575Z,8.48
2018-12-01T09:49:09.611Z,8.49
2018-12-01T09:51:37.797Z,8.53
2018-12-01T09:54:07.342Z,8.48
2018-12-01T09:56:35.708Z,8.58
2018-12-01T09:59:06.879Z,8.78
2018-12-01T10:01:35.269Z,8.72
2018-12-01T10:04:03.749Z,8.69
2018-12-01T10:06:35.043Z,8.72
2018-12-01T10:09:10.010Z,8.71
2018-12-01T10:14:37.252Z,8.89
2018-12-01T10:19:50.357Z,8.65
2018-12-01T10:28:23.100Z,8.83
2018-12-01T10:36:32.393Z,8.86
2018-12-01T10:39:11.323Z,8.67
2018-12-01T10:53:24.689Z,8.85
2018-12-01T10:56:04.556Z,8.83
2018-12-01T10:58:41.701Z,8.69
2018-12-01T11:04:27.096Z,8.85
2018-12-01T11:07:01.263Z,8.80
2018-12-01T11:13:10.506Z,8.86
2018-12-01T11:15:48.205Z,8.95
2018-12-01T11:24:20.876Z,8.84
2018-12-01T11:29:51.585Z,8.85
2018-12-01T11:35:16.728Z,8.98
2018-12-01T11:40:38.846Z,9.03
2018-12-01T11:45:47.494Z,9.01
2018-12-01T11:48:19.439Z,9.06
2018-12-01T11:50:51.612Z,8.97
2018-12-01T11:53:23.925Z,9.02
2018-12-01T11:55:52.100Z,9.07
2018-12-01T11:58:21.267Z,9.04
2018-12-01T12:00:51.454Z,9.07
2018-12-01T12:03:20.009Z,9.15
2018-12-01T12:05:48.456Z,9.21
2018-12-01T12:08:18.671Z,9.18
2018-12-01T12:10:47.179Z,9.11
2018-12-01T12:13:23.086Z,9.18
2018-12-01T12:15:51.433Z,9.36
2018-12-01T12:18:20.427Z,9.19
2018-12-01T12:20:51.032Z,9.22
2018-12-01T12:23:25.151Z,9.07
2018-12-01T12:25:58.021Z,9.21
2018-12-01T12:28:27.059Z,9.35
2018-12-01T12:30:56.246Z,9.38
2018-12-01T12:38:50.012Z,9.43
2018-12-01T12:41:24.588Z,9.25
2018-12-01T12:44:02.620Z,9.38
2018-12-01T12:46:34.063Z,9.34
2018-12-01T12:49:01.477Z,9.53
2018-12-01T12:51:33.417Z,9.43
2018-12-01T12:54:07.025Z,9.35
2018-12-01T12:56:35.258Z,9.49
2018-12-01T12:59:07.267Z,9.39
2018-12-01T13:01:38.048Z,9.50
2018-12-01T13:04:10.030Z,9.40
2018-12-01T13:06:42.661Z,9.45
2018-12-01T13:09:11.683Z,9.45
2018-12-01T13:11:47.082Z,9.51
2018-12-01T13:14:15.642Z,9.55
2018-12-01T13:16:43.814Z,9.53
2018-12-01T13:19:12.573Z,9.59
2018-12-01T13:21:41.537Z,9.45
2018-12-01T13:24:10.048Z,9.61
2018-12-01T13:26:38.184Z,9.51
2018-12-01T13:29:11.474Z,9.47
2018-12-01T13:31:42.867Z,9.42
2018-12-01T13:34:13.749Z,9.49
2018-12-01T13:36:42.392Z,9.38
2018-12-01T13:39:11.123Z,9.40
2018-12-01T13:41:39.380Z,9.44
2018-12-01T13:44:08.042Z,9.43
2018-12-01T13:46:38.160Z,9.50
2018-12-01T13:49:10.415Z,9.56
2018-12-01T13:51:38.877Z,9.61
2018-12-01T13:54:07.277Z,9.55
2018-12-01T13:56:35.650Z,9.47
2018-12-01T13:59:04.101Z,9.49
2018-12-01T14:01:35.536Z,9.52
2018-12-01T14:04:05.328Z,9.57
2018-12-01T14:06:34.115Z,9.61
2018-12-01T14:09:06.096Z,9.33
2018-12-01T14:11:37.226Z,9.50
2018-12-01T14:14:12.752Z,9.48
2018-12-01T14:16:41.264Z,9.00
2018-12-01T14:19:10.654Z,9.25
2018-12-01T14:21:45.050Z,9.37
2018-12-01T14:24:16.812Z,9.48
2018-12-01T14:26:45.208Z,9.39
2018-12-01T14:29:15.790Z,9.36
2018-12-01T14:31:49.633Z,9.31
2018-12-01T14:34:24.649Z,9.26
2018-12-01T14:36:56.710Z,9.15
2018-12-01T14:39:29.751Z,9.09
2018-12-01T14:47:28.176Z,9.06
2018-12-01T14:53:08.514Z,9.14
2018-12-01T14:55:37.564Z,8.98
2018-12-01T14:58:14.997Z,8.93
2018-12-01T15:00:49.252Z,8.99
2018-12-01T15:03:24.243Z,9.01
2018-12-01T15:05:56.981Z,9.01
2018-12-01T15:08:27.694Z,8.94
2018-12-01T15:11:01.063Z,8.96
2018-12-01T15:18:53.529Z,8.89
2018-12-01T15:21:31.400Z,8.89
2018-12-01T15:29:21.257Z,8.77
2018-12-01T15:31:50.101Z,8.85
2018-12-01T15:34:29.077Z,8.94
2018-12-01T15:37:25.785Z,8.97
2018-12-01T15:39:54.167Z,8.87
2018-12-01T15:42:24.149Z,8.82
2018-12-01T15:45:27.725Z,8.71
2018-12-01T15:48:11.796Z,8.68
2018-12-01T15:50:57.709Z,8.72
2018-12-01T15:53:26.367Z,8.69
2018-12-01T15:59:06.246Z,8.63
2018-12-01T16:01:48.253Z,8.67
2018-12-01T16:04:25.874Z,8.64
2018-12-01T16:07:00.796Z,8.66
2018-12-01T16:09:33.366Z,8.60
2018-12-01T16:12:21.924Z,8.72
2018-12-01T16:14:55.492Z,8.66
2018-12-01T16:17:24.462Z,8.61
2018-12-01T16:19:57.561Z,8.73
2018-12-01T16:22:29.755Z,8.78
2018-12-01T16:25:22.717Z,8.68
2018-12-01T16:27:52.851Z,8.76
2018-12-01T16:30:30.750Z,8.66
2018-12-01T16:33:01.042Z,8.58
2018-12-01T16:35:41.905Z,8.60
2018-12-01T16:38:16.865Z,8.58
2018-12-01T16:40:52.093Z,8.52
2018-12-01T16:43:20.272Z,8.54
2018-12-01T16:45:52.522Z,8.35
2018-12-01T16:48:22.571Z,8.40
2018-12-01T16:50:50.784Z,8.39
2018-12-01T16:53:20.318Z,8.44
2018-12-01T16:55:48.490Z,8.47
2018-12-01T16:58:24.267Z,8.35
2018-12-01T17:00:53.408Z,8.42
2018-12-01T17:03:22.809Z,8.55
2018-12-01T17:05:56.346Z,8.46
2018-12-01T17:08:24.569Z,8.50
2018-12-01T17:10:52.924Z,8.43
2018-12-01T17:13:21.140Z,8.62
2018-12-01T17:15:49.300Z,8.38
2018-12-01T17:18:17.338Z,8.41
2018-12-01T17:20:45.532Z,8.46
2018-12-01T17:23:15.717Z,8.54
2018-12-01T17:25:43.853Z,8.47
2018-12-01T17:28:13.699Z,8.39
2018-12-01T17:30:42.110Z,8.42
2018-12-01T17:33:10.214Z,8.43
2018-12-01T17:35:39.251Z,8.54
2018-12-01T17:38:09.605Z,8.44
2018-12-01T17:40:43.149Z,8.40
2018-12-01T17:43:13.941Z,8.47
2018-12-01T17:45:41.995Z,8.46
2018-12-01T17:48:13.474Z,8.43
2018-12-01T17:50:41.573Z,8.54
2018-12-01T17:53:10.706Z,8.60
2018-12-01T17:55:39.923Z,8.54
2018-12-01T17:58:08.882Z,8.53
2018-12-01T18:00:37.652Z,8.52
2018-12-01T18:03:06.982Z,8.53
2018-12-01T18:05:35.872Z,8.41
2018-12-01T18:08:05.197Z,8.55
2018-12-01T18:10:35.342Z,8.57
2018-12-01T18:13:04.378Z,8.56
2018-12-01T18:15:32.613Z,8.67
2018-12-01T18:18:00.865Z,8.69
2018-12-01T18:23:06.940Z,8.57
2018-12-01T18:25:40.880Z,8.59
2018-12-01T18:28:10.730Z,8.54
2018-12-01T18:30:40.533Z,8.49
2018-12-01T18:33:13.746Z,8.54
2018-12-01T18:35:43.403Z,8.61
2018-12-01T18:38:13.249Z,8.69
2018-12-01T18:40:43.121Z,8.68
2018-12-01T18:43:11.275Z,8.64
2018-12-01T18:45:44.878Z,8.68
2018-12-01T18:48:13.093Z,8.83
2018-12-01T18:50:42.196Z,8.73
2018-12-01T18:53:10.542Z,8.71
2018-12-01T18:55:39.671Z,8.73
2018-12-01T18:58:08.974Z,8.73
2018-12-01T19:00:41.824Z,8.82
2018-12-01T19:03:09.851Z,8.89
2018-12-01T19:05:37.947Z,8.78
2018-12-01T19:08:06.056Z,8.87
2018-12-01T19:10:34.138Z,8.92
2018-12-01T19:13:02.218Z,8.83
2018-12-01T19:15:30.447Z,8.91
2018-12-01T19:17:58.537Z,8.88
2018-12-01T19:20:26.657Z,8.96
2018-12-01T19:22:56.052Z,8.88
2018-12-01T19:25:29.088Z,8.94
2018-12-01T19:27:57.289Z,8.97
2018-12-01T19:30:25.495Z,8.96
2018-12-01T19:32:59.627Z,9.02
2018-12-01T19:35:27.732Z,9.00
2018-12-01T19:37:55.978Z,9.10
2018-12-01T19:40:28.781Z,9.02
2018-12-01T19:42:55.055Z,9.05
2018-12-01T19:45:23.255Z,8.98
2018-12-01T19:47:51.710Z,8.96
2018-12-01T19:50:24.141Z,8.95
2018-12-01T19:52:52.231Z,9.05
2018-12-01T19:55:22.457Z,9.13
2018-12-01T19:57:50.652Z,9.15
2018-12-01T20:00:19.373Z,9.14
2018-12-01T20:02:47.515Z,9.18
2018-12-01T20:05:16.286Z,9.17
2018-12-01T20:07:44.499Z,9.14
2018-12-01T20:10:21.105Z,9.20
2018-12-01T20:12:51.177Z,9.22
2018-12-01T20:15:24.398Z,9.19
2018-12-01T20:17:53.572Z,9.25
2018-12-01T20:20:25.036Z,9.27
2018-12-01T20:22:54.810Z,9.20
2018-12-01T20:25:25.044Z,9.23
2018-12-01T20:27:53.170Z,9.30
2018-12-01T20:30:21.961Z,9.19
2018-12-01T20:32:50.102Z,9.39
2018-12-01T20:35:20.529Z,9.39
2018-12-01T20:37:50.411Z,9.34
2018-12-01T20:40:18.560Z,9.47
2018-12-01T20:42:46.606Z,9.50
2018-12-01T20:45:14.694Z,9.49
2018-12-01T20:47:42.785Z,9.45
2018-12-01T20:50:12.635Z,9.46
2018-12-01T20:52:40.676Z,9.42
2018-12-01T20:55:10.746Z,9.48
2018-12-01T20:57:38.929Z,9.52
2018-12-01T21:00:08.738Z,9.47
2018-12-01T21:02:36.858Z,9.55
2018-12-01T21:05:06.762Z,9.56
2018-12-01T21:07:34.817Z,9.41
2018-12-01T21:10:02.868Z,9.48
2018-12-01T21:12:30.916Z,9.47
2018-12-01T21:14:58.979Z,9.56
2018-12-01T21:17:27.012Z,9.54
2018-12-01T21:19:55.109Z,9.55
2018-12-01T21:22:23.196Z,9.56
2018-12-01T21:24:51.305Z,9.69
2018-12-01T21:27:19.408Z,9.66
2018-12-01T21:29:47.510Z,9.72
2018-12-01T21:32:15.605Z,9.73
2018-12-01T21:34:43.733Z,9.72
2018-12-01T21:37:11.867Z,9.62
2018-12-01T21:39:39.933Z,9.75
2018-12-01T21:42:08.109Z,9.62
2018-12-01T21:44:36.198Z,9.63
2018-12-01T21:47:04.337Z,9.66
2018-12-01T21:49:32.386Z,9.62
2018-12-01T21:52:00.485Z,9.66
2018-12-01T21:54:28.519Z,9.69
2018-12-01T21:56:56.649Z,9.69
2018-12-01T21:59:24.960Z,9.77
2018-12-01T22:01:53.096Z,9.85
2018-12-01T22:04:21.171Z,9.76
2018-12-01T22:06:49.268Z,9.79
2018-12-01T22:09:17.762Z,9.72
2018-12-01T22:11:45.986Z,9.81
2018-12-01T22:14:14.064Z,9.73
2018-12-01T22:16:42.279Z,9.76
2018-12-01T22:19:10.403Z,9.82
2018-12-01T22:21:38.482Z,9.72
2018-12-01T22:24:08.709Z,9.77
2018-12-01T22:26:36.772Z,9.84
2018-12-01T22:29:04.877Z,9.79
2018-12-01T22:31:33.870Z,9.85
2018-12-01T22:34:05.600Z,9.94
2018-12-01T22:36:33.729Z,9.92
2018-12-01T22:39:01.842Z,9.88
2018-12-01T22:41:29.983Z,9.78
2018-12-01T22:43:58.117Z,9.74
2018-12-01T22:46:26.266Z,9.84
2018-12-01T22:48:54.359Z,9.88
2018-12-01T22:51:22.692Z,9.90
2018-12-01T22:53:50.849Z,9.86
2018-12-01T22:56:18.932Z,9.75
2018-12-01T22:58:47.044Z,9.89
2018-12-01T23:01:15.489Z,9.84
2018-12-01T23:03:43.616Z,9.74
2018-12-01T23:06:12.940Z,9.91
2018-12-01T23:08:41.039Z,9.85
2018-12-01T23:11:09.149Z,9.87
2018-12-01T23:13:37.565Z,9.82
2018-12-01T23:16:05.843Z,9.77
2018-12-01T23:18:35.370Z,9.78
2018-12-01T23:21:03.693Z,9.92
2018-12-01T23:23:31.754Z,10.01
2018-12-01T23:26:00.056Z,9.91
2018-12-01T23:28:28.216Z,9.96
2018-12-01T23:30:56.399Z,9.98
2018-12-01T23:33:25.250Z,10.02
2018-12-01T23:35:53.597Z,9.96
2018-12-01T23:38:22.023Z,10.01
2018-12-01T23:40:50.243Z,9.95
2018-12-01T23:43:18.284Z,9.96
2018-12-01T23:45:46.621Z,10.01
2018-12-01T23:48:14.889Z,9.94
2018-12-01T23:50:45.000Z,9.87
2018-12-01T23:53:13.796Z,9.87
2018-12-01T23:55:43.316Z,9.89
2018-12-01T23:58:11.464Z,9.99
